Time;durP1;ratioP1;P1;durP2;ratioP2;P2;SDS_P1;SDS_P2;PMS_P1;PMS_P2;Temp;Humidity;BMP_temperature;BMP_pressure;BME280_temperature;BME280_humidity;BME280_pressure;Samples;Min_cycle;Max_cycle;Signal;HPM_P1;HPM_P2
2024/04/18 00:01:18;;;;;;;3.85;3.42;;;;;;;5.97;79.50;97607.03;5308925;26;19997;-75
2024/04/18 00:03:43;;;;;;;5.10;4.60;;;;;;;5.82;79.37;97587.91;5264093;26;19993;-75
2024/04/18 00:06:09;;;;;;;4.63;4.22;;;;;;;5.89;79.33;97621.53;5304396;27;20016;-74
2024/04/18 00:08:34;;;;;;;6.25;4.85;;;;;;;5.83;79.19;97605.59;5270782;27;20008;-74
2024/04/18 00:11:19;;;;;;;5.15;4.72;;;;;;;5.73;79.28;97599.97;5311780;27;19997;-74
2024/04/18 00:13:45;;;;;;;5.13;4.30;;;;;;;5.84;79.23;97623.22;5292780;26;20005;-73
2024/04/18 00:16:30;;;;;;;4.22;3.83;;;;;;;5.73;79.80;97610.66;5286904;27;19998;-74
2024/04/18 00:19:17;;;;;;;3.92;3.45;;;;;;;5.66;79.84;97609.94;5314114;26;20550;-74
2024/04/18 00:21:56;;;;;;;5.40;3.58;;;;;;;5.75;79.73;97624.59;5296273;26;20019;-73
2024/04/18 00:24:24;;;;;;;5.15;3.90;;;;;;;5.75;79.94;97621.94;5309784;26;20372;-74
2024/04/18 00:26:50;;;;;;;5.10;3.80;;;;;;;5.78;79.76;97632.16;5303847;26;20017;-74
2024/04/18 00:29:15;;;;;;;4.15;3.58;;;;;;;5.67;79.84;97614.25;5309410;27;20001;-74
2024/04/18 00:31:40;;;;;;;5.90;4.60;;;;;;;5.73;79.62;97626.69;5310033;27;19997;-75
2024/04/18 00:34:06;;;;;;;5.28;4.03;;;;;;;5.56;79.41;97600.63;5301405;27;20018;-73
2024/04/18 00:36:43;;;;;;;4.88;4.20;;;;;;;5.74;79.19;97628.31;5325059;26;20438;-75
2024/04/18 00:39:21;;;;;;;4.40;4.00;;;;;;;5.67;79.43;97622.25;5302970;27;20017;-74
2024/04/18 00:41:57;;;;;;;4.53;4.13;;;;;;;5.63;79.74;97621.88;5308624;26;20000;-73
2024/04/18 00:44:28;;;;;;;5.22;3.83;;;;;;;5.22;80.23;97555.09;5321799;26;19998;-73
2024/04/18 00:47:11;;;;;;;3.88;3.50;;;;;;;5.64;80.05;97622.72;5309996;26;20037;-73
2024/04/18 00:49:37;;;;;;;4.63;4.22;;;;;;;5.63;80.22;97618.41;5308133;27;20028;-74
2024/04/18 00:52:02;;;;;;;5.00;4.57;;;;;;;5.53;80.04;97611.75;5272502;27;20013;-73
2024/04/18 00:54:28;;;;;;;6.10;4.82;;;;;;;5.49;80.19;97620.44;5293220;26;20353;-73
2024/04/18 00:56:57;;;;;;;4.90;4.50;;;;;;;5.48;80.14;97622.28;5266561;27;20005;-74
2024/04/18 00:59:25;;;;;;;5.85;4.50;;;;;;;5.35;80.15;97614.47;5325406;26;20699;-75
2024/04/18 01:02:14;;;;;;;4.40;4.00;;;;;;;5.42;80.23;97631.22;5323689;26;20004;-75
2024/04/18 01:04:40;;;;;;;6.63;4.70;;;;;;;5.35;80.12;97625.16;5267118;27;20002;-75
2024/04/18 01:07:11;;;;;;;9.52;6.25;;;;;;;5.23;80.15;97610.09;5301158;26;20034;-75
2024/04/18 01:09:46;;;;;;;5.15;4.65;;;;;;;5.19;80.13;97614.25;5303992;26;20395;-74
2024/04/18 01:12:11;;;;;;;5.55;4.97;;;;;;;5.25;80.09;97619.50;5261299;26;20009;-75
2024/04/18 01:14:36;;;;;;;4.88;3.85;;;;;;;5.28;80.15;97623.59;5302563;27;20001;-75
2024/04/18 01:17:03;;;;;;;4.75;4.35;;;;;;;5.28;80.46;97624.41;5301530;27;20349;-74
2024/04/18 01:19:28;;;;;;;5.55;4.50;;;;;;;5.15;80.65;97608.56;5285591;26;20336;-74
2024/04/18 01:21:54;;;;;;;7.05;5.28;;;;;;;5.26;80.60;97629.16;5295554;27;19994;-75
2024/04/18 01:24:19;;;;;;;6.25;5.75;;;;;;;5.24;80.75;97633.09;5284670;26;20005;-75
2024/04/18 01:26:44;;;;;;;6.18;4.97;;;;;;;5.21;80.73;97623.69;5281625;26;20002;-75
2024/04/18 01:29:10;;;;;;;8.45;5.32;;;;;;;5.17;80.69;97622.50;5280370;26;19998;-74
2024/04/18 01:31:55;;;;;;;7.28;6.35;;;;;;;5.12;81.10;97617.03;5292171;27;20349;-74
2024/04/18 01:34:20;;;;;;;5.53;5.03;;;;;;;5.18;80.85;97618.78;5278596;27;19998;-74
2024/04/18 01:36:46;;;;;;;5.75;5.18;;;;;;;5.23;80.96;97621.59;5238430;27;19997;-74
2024/04/18 01:39:26;;;;;;;6.93;6.00;;;;;;;5.22;80.67;97613.81;5252747;27;20003;-74
2024/04/18 01:42:02;;;;;;;;;;;;;;;5.14;80.83;97633.63;5286694;27;20053;-74
2024/04/18 01:44:44;;;;;;;8.60;7.68;;;;;;;5.31;81.06;97634.66;5282152;27;19933;-73
2024/04/18 01:47:27;;;;;;;5.93;4.67;;;;;;;5.23;81.49;97634.94;5277791;27;20082;-73
2024/04/18 01:50:06;;;;;;;11.27;8.38;;;;;;;5.23;81.29;97624.28;5288789;27;20003;-74
2024/04/18 01:52:31;;;;;;;8.85;7.78;;;;;;;5.06;81.64;97641.13;5267916;27;20005;-74
2024/04/18 01:55:01;;;;;;;8.23;6.93;;;;;;;5.03;81.73;97631.72;5274085;27;20064;-75
2024/04/18 01:57:35;;;;;;;11.23;7.90;;;;;;;4.89;81.52;97630.22;5295813;27;19994;-74
2024/04/18 02:00:19;;;;;;;9.50;7.20;;;;;;;4.79;81.74;97629.91;5279795;27;20017;-75
2024/04/18 02:02:44;;;;;;;6.82;5.25;;;;;;;4.90;81.52;97642.53;5270340;26;20001;-73
2024/04/18 02:05:10;;;;;;;5.40;4.75;;;;;;;4.96;82.17;97651.50;5319219;26;20002;-74
2024/04/18 02:07:44;;;;;;;12.57;9.30;;;;;;;4.92;81.98;97651.13;5291925;27;20405;-74
2024/04/18 02:10:09;;;;;;;8.38;7.18;;;;;;;4.92;82.15;97661.81;5275184;27;20014;-74
2024/04/18 02:12:56;;;;;;;10.07;7.45;;;;;;;4.98;81.95;97660.09;5309058;26;20408;-74
2024/04/18 02:15:41;;;;;;;6.40;5.50;;;;;;;5.01;82.23;97648.97;5327731;26;20015;-74
2024/04/18 02:18:13;;;;;;;6.30;5.70;;;;;;;4.96;82.17;97644.31;5285841;26;20467;-74
2024/04/18 02:20:41;;;;;;;6.47;5.88;;;;;;;5.00;82.19;97647.34;5282516;27;20013;-74
2024/04/18 02:23:22;;;;;;;6.93;6.20;;;;;;;5.11;82.46;97654.63;5289142;26;20403;-75
2024/04/18 02:25:47;;;;;;;6.25;5.55;;;;;;;5.07;82.48;97648.06;5269886;27;20009;-75
2024/04/18 02:28:13;;;;;;;6.22;5.55;;;;;;;5.13;82.60;97656.03;5280314;26;20009;-74
2024/04/18 02:30:39;;;;;;;7.32;6.63;;;;;;;5.17;82.81;97657.22;5332176;26;20068;-74
2024/04/18 02:33:14;;;;;;;6.72;5.97;;;;;;;5.20;82.63;97659.44;5308568;26;20027;-74
2024/04/18 02:35:46;;;;;;;7.07;6.38;;;;;;;5.10;82.85;97644.97;5303154;27;20012;-74
2024/04/18 02:38:30;;;;;;;6.75;6.15;;;;;;;5.20;82.88;97664.78;5292060;26;20008;-74
2024/04/18 02:41:06;;;;;;;6.32;5.75;;;;;;;5.16;82.57;97650.22;5300785;27;20013;-74
2024/04/18 02:43:49;;;;;;;7.82;7.03;;;;;;;5.24;83.03;97660.63;5302143;26;20342;-74
2024/04/18 02:46:14;;;;;;;6.63;5.70;;;;;;;5.29;83.19;97662.59;5342473;26;20016;-75
2024/04/18 02:48:39;;;;;;;6.80;6.07;;;;;;;5.21;83.23;97650.38;5270126;27;20333;-74
2024/04/18 02:51:22;;;;;;;8.60;7.07;;;;;;;5.24;83.12;97639.25;5290224;26;20009;-74
2024/04/18 02:54:07;;;;;;;5.73;5.17;;;;;;;5.41;83.36;97666.16;5283768;27;20363;-74
2024/04/18 02:56:32;;;;;;;6.57;5.97;;;;;;;5.41;83.07;97669.63;5316947;26;20004;-74
2024/04/18 02:59:07;;;;;;;6.68;6.05;;;;;;;5.33;83.09;97653.94;5286879;26;20004;-74
2024/04/18 03:01:46;;;;;;;6.45;5.82;;;;;;;5.29;82.86;97652.75;5329663;26;20391;-73
2024/04/18 03:04:11;;;;;;;7.35;6.65;;;;;;;5.27;83.11;97670.84;5296518;27;20001;-74
2024/04/18 03:06:36;;;;;;;7.28;6.60;;;;;;;5.16;83.37;97644.09;5271521;26;20001;-74
2024/04/18 03:09:03;;;;;;;6.53;5.93;;;;;;;5.17;83.20;97649.19;5274035;26;20399;-74
2024/04/18 03:11:30;;;;;;;6.30;5.72;;;;;;;5.27;83.58;97651.34;5309156;27;20009;-73
2024/04/18 03:14:07;;;;;;;5.65;5.15;;;;;;;5.28;83.09;97659.13;5315709;26;20012;-74
2024/04/18 03:16:32;;;;;;;7.82;6.95;;;;;;;5.30;82.93;97659.72;5312205;26;20025;-75
2024/04/18 03:19:17;;;;;;;6.35;5.70;;;;;;;5.40;83.12;97673.34;5290083;27;20539;-75
2024/04/18 03:21:52;;;;;;;8.40;7.40;;;;;;;5.34;82.90;97668.91;5261148;26;20029;-75
2024/04/18 03:24:20;;;;;;;7.05;6.10;;;;;;;5.44;83.15;97682.53;5297498;27;20006;-74
2024/04/18 03:26:45;;;;;;;10.70;7.88;;;;;;;5.43;83.47;97683.59;5316853;26;20005;-74
2024/04/18 03:29:12;;;;;;;9.20;8.20;;;;;;;5.39;83.08;97670.91;5310375;26;20020;-74
2024/04/18 03:31:55;;;;;;;6.82;6.10;;;;;;;5.30;82.69;97662.38;5304937;26;20344;-74
2024/04/18 03:34:40;;;;;;;7.63;6.93;;;;;;;5.42;82.51;97684.63;5319909;26;20013;-74
2024/04/18 03:37:06;;;;;;;9.32;8.48;;;;;;;5.38;82.49;97678.09;5308705;27;20000;-74
2024/04/18 03:39:31;;;;;;;7.25;6.65;;;;;;;5.35;82.84;97673.19;5281949;27;20059;-75
2024/04/18 03:41:56;;;;;;;6.93;6.32;;;;;;;5.35;82.78;97667.88;5300501;27;19998;-75
2024/04/18 03:44:22;;;;;;;8.40;7.53;;;;;;;5.50;82.98;97687.00;5304897;26;20011;-74
2024/04/18 03:46:47;;;;;;;7.72;6.90;;;;;;;5.50;83.12;97692.34;5334704;26;20079;-74
2024/04/18 03:49:32;;;;;;;9.20;7.95;;;;;;;5.49;83.33;97690.69;5302561;27;20013;-75
2024/04/18 03:51:57;;;;;;;8.15;7.40;;;;;;;5.53;82.81;97691.88;5306258;26;19997;-75
2024/04/18 03:54:33;;;;;;;14.80;10.70;;;;;;;5.56;82.97;97693.28;5285190;26;20034;-75
2024/04/18 03:57:01;;;;;;;9.57;8.52;;;;;;;5.52;82.97;97689.44;5275138;27;20002;-74
2024/04/18 03:59:26;;;;;;;10.50;9.45;;;;;;;5.45;83.40;97678.84;5294293;27;20468;-74
2024/04/18 04:01:52;;;;;;;10.20;9.10;;;;;;;5.22;83.71;97678.72;5291264;27;20016;-76
2024/04/18 04:04:17;;;;;;;10.73;9.73;;;;;;;5.32;83.79;97689.66;5271552;26;20010;-75
2024/04/18 04:06:42;;;;;;;13.30;10.20;;;;;;;5.43;83.80;97701.47;5299503;27;20013;-76
2024/04/18 04:09:08;;;;;;;22.08;15.38;;;;;;;5.37;83.82;97694.31;5318796;26;19997;-75
2024/04/18 04:11:35;;;;;;;42.95;38.70;;;;;;;5.17;83.78;97675.88;5239779;27;20894;-75
2024/04/18 04:14:00;;;;;;;22.00;19.48;;;;;;;5.44;83.67;97719.09;5292434;26;20001;-75
2024/04/18 04:16:46;;;;;;;13.83;12.43;;;;;;;5.36;83.66;97701.53;5312645;26;20005;-76
2024/04/18 04:19:16;;;;;;;17.25;15.60;;;;;;;5.36;83.84;97706.88;5328512;26;20005;-76
2024/04/18 04:21:47;;;;;;;9.70;8.80;;;;;;;5.29;84.09;97710.66;5271617;26;20049;-75
2024/04/18 04:24:12;;;;;;;9.57;8.77;;;;;;;5.43;83.93;97731.66;5339055;26;20000;-75
2024/04/18 04:26:47;;;;;;;10.60;9.55;;;;;;;5.35;83.93;97721.25;5302467;27;20001;-75
2024/04/18 04:29:13;;;;;;;11.73;10.57;;;;;;;5.38;83.87;97726.16;5282325;27;20083;-74
2024/04/18 04:31:38;;;;;;;11.73;10.63;;;;;;;5.47;83.93;97729.34;5252139;26;20001;-74
2024/04/18 04:34:05;;;;;;;11.35;10.25;;;;;;;5.46;83.37;97733.84;5308285;27;20021;-74
2024/04/18 04:36:30;;;;;;;10.52;9.52;;;;;;;5.51;83.75;97736.69;5302166;26;20028;-75
2024/04/18 04:38:56;;;;;;;10.55;9.55;;;;;;;5.51;83.56;97730.50;5336643;26;20416;-75
2024/04/18 04:41:33;;;;;;;11.70;10.45;;;;;;;5.68;83.35;97757.44;5324230;26;20009;-75
2024/04/18 04:43:58;;;;;;;12.32;10.50;;;;;;;5.68;83.36;97757.44;5272042;27;19998;-73
2024/04/18 04:46:24;;;;;;;14.50;12.82;;;;;;;5.63;83.29;97760.78;5298142;26;20016;-74
2024/04/18 04:49:09;;;;;;;11.13;10.07;;;;;;;5.62;83.34;97763.69;5296567;26;20016;-74
2024/04/18 04:51:54;;;;;;;9.80;8.80;;;;;;;5.54;83.24;97749.59;5284233;27;20434;-74
2024/04/18 04:54:38;;;;;;;12.00;10.80;;;;;;;5.58;83.10;97764.13;5319720;26;20000;-74
2024/04/18 04:57:03;;;;;;;11.68;10.20;;;;;;;5.60;83.24;97769.25;5281161;27;19998;-74
2024/04/18 04:59:29;;;;;;;10.52;9.50;;;;;;;5.60;82.91;97783.41;5326351;26;20005;-76
2024/04/18 05:01:54;;;;;;;11.27;10.07;;;;;;;5.52;82.70;97770.38;5285226;26;19997;-74
2024/04/18 05:04:40;;;;;;;10.30;9.20;;;;;;;5.49;82.90;97778.81;5309216;27;20009;-74
2024/04/18 05:07:25;;;;;;;9.90;9.00;;;;;;;5.59;82.80;97789.81;5312592;26;20080;-75
2024/04/18 05:09:50;;;;;;;11.93;10.73;;;;;;;5.69;83.24;97799.16;5329772;26;20009;-75
2024/04/18 05:12:16;;;;;;;11.13;10.00;;;;;;;5.67;83.26;97798.56;5326984;26;19997;-76
2024/04/18 05:14:41;;;;;;;9.90;8.90;;;;;;;5.55;82.59;97782.47;5287176;27;20445;-76
2024/04/18 05:17:25;;;;;;;10.43;9.43;;;;;;;5.69;82.71;97796.47;5300603;26;20012;-75
2024/04/18 05:20:10;;;;;;;9.75;8.85;;;;;;;5.68;82.99;97794.84;5285917;27;20016;-76
2024/04/18 05:22:35;;;;;;;11.27;10.23;;;;;;;5.64;82.68;97799.00;5266256;27;20001;-75
2024/04/18 05:25:00;;;;;;;11.52;10.32;;;;;;;5.75;82.84;97800.91;5309114;27;20001;-75
2024/04/18 05:27:26;;;;;;;10.93;9.82;;;;;;;5.75;81.99;97811.59;5260894;26;20016;-76
2024/04/18 05:32:35;;;;;;;9.77;8.88;;;;;;;5.57;82.66;97815.94;5306027;26;20460;-76
2024/04/18 05:35:10;;;;;;;13.20;11.00;;;;;;;5.52;83.03;97818.44;5280771;26;20005;-75
2024/04/18 05:37:35;;;;;;;12.55;9.60;;;;;;;5.67;82.91;97825.28;5307766;27;20397;-75
2024/04/18 05:40:00;;;;;;;9.77;8.85;;;;;;;5.56;82.79;97808.13;5320295;26;20015;-75
2024/04/18 05:42:26;;;;;;;10.23;9.23;;;;;;;5.47;82.62;97804.94;5306030;27;20013;-76
2024/04/18 05:45:06;;;;;;;10.85;9.65;;;;;;;5.71;82.40;97831.78;5298207;26;20020;-75
2024/04/18 05:47:32;;;;;;;11.20;9.68;;;;;;;5.82;82.65;97844.41;5297670;27;20540;-75
2024/04/18 05:49:57;;;;;;;11.20;10.02;;;;;;;5.83;82.79;97830.03;5280107;27;20089;-75
2024/04/18 05:52:22;;;;;;;12.65;11.45;;;;;;;6.00;83.00;97847.09;5303096;26;20082;-75
2024/04/18 05:54:48;;;;;;;13.98;9.98;;;;;;;5.93;82.08;97835.66;5278191;27;20014;-76
2024/04/18 05:57:33;;;;;;;12.52;10.00;;;;;;;5.95;82.47;97822.94;5312011;26;20000;-76
2024/04/18 05:59:58;;;;;;;10.77;9.68;;;;;;;6.19;82.02;97843.38;5271960;27;20025;-75
2024/04/18 06:02:23;;;;;;;11.77;10.43;;;;;;;6.24;82.45;97839.00;5282023;26;20017;-75
2024/04/18 06:04:49;;;;;;;11.32;10.13;;;;;;;6.23;82.14;97847.25;5326255;26;20458;-75
2024/04/18 06:07:33;;;;;;;13.05;10.77;;;;;;;6.30;82.53;97847.16;5326655;26;20078;-77
2024/04/18 06:09:58;;;;;;;12.45;11.25;;;;;;;6.28;82.63;97842.00;5300538;27;20013;-75
2024/04/18 06:12:24;;;;;;;12.15;10.95;;;;;;;6.43;82.06;97847.78;5293998;26;20473;-75
2024/04/18 06:14:49;;;;;;;12.13;10.75;;;;;;;6.44;82.55;97849.41;5280088;27;20002;-75
2024/04/18 06:17:15;;;;;;;13.57;12.18;;;;;;;6.36;82.11;97825.66;5340192;26;20023;-75
2024/04/18 06:19:53;;;;;;;11.35;10.20;;;;;;;6.68;81.68;97856.50;5331487;26;20020;-76
2024/04/18 06:22:30;;;;;;;11.95;10.75;;;;;;;6.70;82.52;97870.44;5298729;27;20017;-75
2024/04/18 06:25:16;;;;;;;10.70;9.70;;;;;;;6.74;81.24;97868.16;5298098;26;20353;-76
2024/04/18 06:27:42;;;;;;;10.27;9.30;;;;;;;6.77;82.00;97881.88;5272563;27;20057;-75
2024/04/18 06:30:08;;;;;;;10.88;9.55;;;;;;;6.62;81.52;97852.06;5259838;27;20650;-76
2024/04/18 06:32:34;;;;;;;10.73;9.60;;;;;;;6.67;81.80;97867.44;5295289;26;20761;-75
2024/04/18 06:34:59;;;;;;;11.50;8.52;;;;;;;6.69;81.33;97868.84;5244719;27;20017;-75
2024/04/18 06:37:25;;;;;;;10.05;9.13;;;;;;;6.70;80.95;97870.44;5336089;26;20019;-76
2024/04/18 06:39:51;;;;;;;9.00;8.10;;;;;;;6.74;81.19;97876.19;5318299;26;20104;-76
2024/04/18 06:42:16;;;;;;;12.65;8.82;;;;;;;6.75;80.81;97894.66;5252085;26;20006;-76
2024/04/18 06:44:42;;;;;;;9.38;8.15;;;;;;;6.66;80.58;97890.69;5304306;26;20102;-76
2024/04/18 06:47:07;;;;;;;9.50;8.55;;;;;;;6.62;80.31;97889.50;5305444;27;20341;-74
2024/04/18 06:49:32;;;;;;;10.02;9.02;;;;;;;6.67;80.55;97907.56;5305535;26;20015;-75
2024/04/18 06:51:58;;;;;;;9.18;8.18;;;;;;;6.82;81.02;97911.44;5298559;26;19997;-76
2024/04/18 06:54:24;;;;;;;9.80;8.38;;;;;;;6.80;81.11;97907.38;5309294;26;20005;-75
2024/04/18 06:56:49;;;;;;;8.93;8.00;;;;;;;6.66;81.02;97896.03;5284514;26;20016;-76
2024/04/18 06:59:15;;;;;;;9.68;8.60;;;;;;;6.65;81.31;97904.31;5254685;26;20172;-77
2024/04/18 07:01:40;;;;;;;11.90;9.00;;;;;;;6.58;81.25;97908.94;5271759;26;20416;-77
2024/04/18 07:04:05;;;;;;;7.90;7.10;;;;;;;6.71;81.12;97930.97;5302971;27;20020;-76
2024/04/18 07:06:31;;;;;;;6.60;5.97;;;;;;;6.68;81.19;97936.75;5296860;26;20345;-76
2024/04/18 07:09:02;;;;;;;5.78;5.25;;;;;;;6.51;81.05;97927.72;5284924;26;20352;-75
2024/04/18 07:11:43;;;;;;;5.57;5.00;;;;;;;6.48;80.75;97924.69;5295837;26;20009;-75
2024/04/18 07:14:08;;;;;;;6.50;5.60;;;;;;;6.46;80.15;97932.94;5277971;26;20005;-76
2024/04/18 07:16:33;;;;;;;7.05;6.38;;;;;;;6.37;80.46;97928.91;5341877;26;20004;-76
2024/04/18 07:19:19;;;;;;;6.28;5.72;;;;;;;6.51;80.15;97942.97;5318686;26;20419;-76
2024/04/18 07:21:53;;;;;;;6.45;5.65;;;;;;;6.52;80.04;97945.41;5306409;26;20016;-76
2024/04/18 07:24:19;;;;;;;6.15;5.10;;;;;;;6.25;79.54;97909.34;5337726;26;20001;-76
2024/04/18 07:26:45;;;;;;;5.80;5.30;;;;;;;6.52;79.86;97958.78;5281833;26;20002;-76
2024/04/18 07:29:10;;;;;;;6.70;6.00;;;;;;;6.52;80.16;97961.47;5283076;26;20030;-76
2024/04/18 07:31:35;;;;;;;6.10;5.50;;;;;;;6.30;79.99;97928.19;5307572;26;20014;-76
2024/04/18 07:34:13;;;;;;;6.53;5.53;;;;;;;6.33;79.95;97933.09;5264838;26;20013;-76
2024/04/18 07:36:39;;;;;;;5.85;5.35;;;;;;;6.37;80.18;97939.59;5283107;26;20001;-76
2024/04/18 07:39:05;;;;;;;5.85;5.32;;;;;;;6.38;80.46;97924.38;5288039;26;20005;-77
2024/04/18 07:41:30;;;;;;;5.93;5.43;;;;;;;6.66;80.43;97970.94;5310278;26;20024;-73
2024/04/18 07:43:56;;;;;;;7.10;6.45;;;;;;;6.70;80.34;97965.97;5280463;27;20002;-75
2024/04/18 07:46:25;;;;;;;8.07;7.25;;;;;;;6.67;80.16;97964.56;5337543;26;20005;-74
2024/04/18 07:48:50;;;;;;;8.07;7.32;;;;;;;6.63;79.90;97955.34;5311305;26;20005;-76
2024/04/18 07:51:15;;;;;;;9.65;8.82;;;;;;;6.84;79.75;97981.63;5280082;27;20016;-75
2024/04/18 07:53:41;;;;;;;10.15;9.25;;;;;;;6.78;80.15;97968.34;5311122;26;20020;-76
2024/04/18 07:56:07;;;;;;;13.95;12.65;;;;;;;6.80;80.01;97956.38;5279995;27;20438;-76
2024/04/18 07:58:33;;;;;;;11.20;10.20;;;;;;;6.82;79.53;97970.34;5301469;26;20014;-76
2024/04/18 08:00:59;;;;;;;11.07;9.93;;;;;;;6.94;78.96;97995.28;5253504;27;20080;-76
2024/04/18 08:03:24;;;;;;;11.13;10.02;;;;;;;6.98;78.82;97996.47;5308731;26;20001;-76
2024/04/18 08:05:49;;;;;;;11.90;10.70;;;;;;;6.98;78.64;97992.97;5305860;26;20016;-77
2024/04/18 08:08:15;;;;;;;11.27;10.18;;;;;;;6.95;78.50;97986.22;5281238;26;20075;-76
2024/04/18 08:10:40;;;;;;;10.88;9.88;;;;;;;7.00;78.73;97982.06;5279435;26;20006;-76
2024/04/18 08:13:06;;;;;;;12.05;10.77;;;;;;;7.37;78.84;98003.16;5335528;26;20011;-75
2024/04/18 08:15:31;;;;;;;12.48;11.27;;;;;;;7.51;78.43;98001.09;5340219;26;20001;-76
2024/04/18 08:17:57;;;;;;;11.00;10.00;;;;;;;7.58;78.66;98015.19;5301627;27;20002;-76
2024/04/18 08:20:22;;;;;;;12.27;11.18;;;;;;;7.52;78.15;98016.09;5279937;26;20005;-75
2024/04/18 08:22:50;;;;;;;11.18;10.07;;;;;;;7.43;77.76;98001.41;5314837;26;20453;-76
2024/04/18 08:25:16;;;;;;;11.55;10.35;;;;;;;7.39;76.72;98002.91;5302482;26;20002;-76
2024/04/18 08:27:41;;;;;;;12.15;11.05;;;;;;;7.18;77.42;97995.38;5309541;26;20021;-76
2024/04/18 08:30:07;;;;;;;10.77;9.80;;;;;;;7.35;76.99;97991.03;5309463;27;20453;-76
2024/04/18 08:32:32;;;;;;;11.60;10.50;;;;;;;7.52;76.85;97981.28;5313917;26;20004;-75
2024/04/18 08:34:58;;;;;;;12.43;11.32;;;;;;;7.68;76.58;98002.84;5281181;27;20009;-76
2024/04/18 08:37:23;;;;;;;12.50;11.30;;;;;;;7.70;76.53;98010.69;5296249;26;20040;-75
2024/04/18 08:39:49;;;;;;;11.93;10.82;;;;;;;7.79;76.00;98014.66;5285104;26;20358;-75
2024/04/18 08:42:15;;;;;;;12.77;11.57;;;;;;;7.89;76.20;98014.88;5279745;26;20408;-76
2024/04/18 08:44:41;;;;;;;12.13;11.02;;;;;;;8.00;75.88;98024.00;5250133;26;20469;-76
2024/04/18 08:47:08;;;;;;;11.32;10.25;;;;;;;7.98;75.74;98013.50;5306537;27;20006;-76
2024/04/18 08:49:37;;;;;;;11.43;10.35;;;;;;;8.11;74.91;98013.28;5300296;26;20001;-76
2024/04/18 08:52:03;;;;;;;12.57;11.38;;;;;;;7.91;74.74;97985.97;5298320;27;20009;-76
2024/04/18 08:54:30;;;;;;;11.50;10.05;;;;;;;8.09;74.29;98017.25;5297948;26;20001;-76
2024/04/18 08:56:57;;;;;;;12.13;10.95;;;;;;;8.01;74.47;98029.13;5333128;26;20355;-76
2024/04/18 08:59:22;;;;;;;11.07;10.07;;;;;;;7.99;74.57;98017.81;5309116;27;20424;-76
2024/04/18 09:01:48;;;;;;;11.48;10.38;;;;;;;7.99;74.46;98020.50;5306353;26;20009;-76
2024/04/18 09:04:14;;;;;;;11.77;10.75;;;;;;;8.17;74.20;98039.16;5298425;27;20017;-76
2024/04/18 09:06:39;;;;;;;10.55;9.52;;;;;;;7.98;74.53;98018.84;5304868;26;20003;-76
2024/04/18 09:09:08;;;;;;;11.10;10.10;;;;;;;8.11;74.69;98034.75;5302637;27;20001;-76
2024/04/18 09:11:34;;;;;;;11.00;9.98;;;;;;;8.18;74.80;98040.81;5304451;26;20109;-76
2024/04/18 09:14:00;;;;;;;11.55;10.40;;;;;;;8.11;74.11;98039.28;5343240;26;20457;-75
2024/04/18 09:16:27;;;;;;;10.98;9.90;;;;;;;8.26;74.17;98037.78;5304286;26;20001;-76
2024/04/18 09:18:53;;;;;;;10.90;9.80;;;;;;;8.33;73.46;98038.50;5313882;26;20538;-76
2024/04/18 09:21:20;;;;;;;10.68;9.68;;;;;;;8.32;73.20;98036.88;5284987;26;20016;-75
2024/04/18 09:23:45;;;;;;;10.63;9.60;;;;;;;8.43;73.00;98031.72;5309842;26;20005;-75
2024/04/18 09:26:10;;;;;;;10.63;9.60;;;;;;;8.59;74.02;98050.59;5290141;27;20063;-75
2024/04/18 09:28:38;;;;;;;11.02;10.02;;;;;;;8.46;73.95;98052.72;5281386;26;19992;-76
2024/04/18 09:31:03;;;;;;;13.52;12.20;;;;;;;8.05;73.62;98024.91;5274954;27;20012;-75
2024/04/18 09:33:33;;;;;;;12.27;11.18;;;;;;;7.74;73.51;98041.34;5282482;26;19997;-77
2024/04/18 09:35:59;;;;;;;13.07;11.88;;;;;;;7.99;73.65;98063.41;5279800;26;20041;-76
2024/04/18 09:38:31;;;;;;;13.10;11.90;;;;;;;8.04;73.69;98054.66;5296450;27;20006;-75
2024/04/18 09:41:09;;;;;;;11.52;10.50;;;;;;;8.10;72.73;98065.28;5310026;26;20015;-75
2024/04/18 09:44:24;;;;;;;12.98;11.75;;;;;;;8.19;73.18;98058.50;5273420;26;19998;-76
2024/04/18 09:46:50;;;;;;;11.55;10.45;;;;;;;8.30;72.75;98048.88;5281127;26;20734;-76
2024/04/18 09:49:16;;;;;;;11.05;9.95;;;;;;;8.64;72.41;98066.81;5251811;26;20097;-76
2024/04/18 09:51:42;;;;;;;11.90;10.80;;;;;;;8.81;72.29;98056.19;5278168;26;20672;-75
2024/04/18 09:54:08;;;;;;;10.82;9.82;;;;;;;8.92;72.25;98058.03;5257035;26;20498;-75
2024/04/18 09:56:34;;;;;;;10.35;9.30;;;;;;;9.07;72.76;98060.22;5285627;26;19997;-76
2024/04/18 09:59:00;;;;;;;12.45;11.18;;;;;;;9.02;72.57;98052.88;5257608;26;20001;-76
2024/04/18 10:01:25;;;;;;;10.93;9.82;;;;;;;9.18;71.95;98067.41;5305933;26;20366;-76
2024/04/18 10:03:51;;;;;;;10.38;9.38;;;;;;;8.88;72.43;98073.00;5277394;27;20334;-75
2024/04/18 10:06:17;;;;;;;9.32;7.60;;;;;;;8.58;72.25;98069.63;5280529;26;20041;-75
2024/04/18 10:08:46;;;;;;;7.10;6.40;;;;;;;8.25;71.55;98087.13;5307867;26;20500;-75
2024/04/18 10:11:15;;;;;;;7.10;6.45;;;;;;;7.92;72.41;98086.81;5251755;27;20012;-75
2024/04/18 10:13:43;;;;;;;7.78;7.07;;;;;;;7.76;72.89;98100.88;5285039;26;20005;-75
2024/04/18 10:16:12;;;;;;;7.60;6.80;;;;;;;7.70;72.73;98104.50;5279776;26;20009;-75
2024/04/18 10:18:38;;;;;;;7.95;7.25;;;;;;;7.45;73.59;98114.50;5272279;26;20031;-74
2024/04/18 10:21:14;;;;;;;9.40;8.38;;;;;;;7.33;74.20;98111.78;5279364;26;20001;-73
2024/04/18 10:23:49;;;;;;;;;;;;;;;7.04;75.40;98122.44;5306170;26;20012;-74
2024/04/18 10:26:15;;;;;;;8.45;7.65;;;;;;;7.31;75.56;98123.75;5293487;26;19927;-74
2024/04/18 10:28:41;;;;;;;8.85;8.05;;;;;;;7.33;76.18;98121.66;5283303;26;19997;-75
2024/04/18 10:31:07;;;;;;;8.82;8.02;;;;;;;7.20;76.25;98092.38;5272806;27;20323;-75
2024/04/18 10:33:34;;;;;;;9.07;8.27;;;;;;;7.42;76.50;98120.34;5276581;26;20232;-74
2024/04/18 10:35:59;;;;;;;8.68;7.88;;;;;;;7.46;76.78;98100.91;5313463;26;19997;-74
2024/04/18 10:38:28;;;;;;;9.50;8.63;;;;;;;7.56;77.18;98084.28;5260708;27;19994;-75
2024/04/18 10:41:04;;;;;;;8.65;7.85;;;;;;;7.88;77.25;98091.03;5291064;26;20004;-74
2024/04/18 10:43:32;;;;;;;8.00;7.30;;;;;;;8.02;76.69;98100.50;5339320;26;20029;-75
2024/04/18 10:46:06;;;;;;;7.45;6.72;;;;;;;8.26;75.96;98101.38;5261522;26;20003;-75
2024/04/18 10:48:36;;;;;;;8.07;7.28;;;;;;;8.32;75.00;98087.84;5315763;26;20001;-75
2024/04/18 10:51:03;;;;;;;7.85;7.15;;;;;;;8.47;74.88;98086.56;5330655;21;20004;-72
2024/04/18 10:53:34;;;;;;;7.50;6.85;;;;;;;8.55;74.02;98094.25;5356273;26;20494;-72
2024/04/18 10:56:00;;;;;;;7.00;6.35;;;;;;;8.63;73.58;98091.22;5354739;26;20000;-72
2024/04/18 10:58:26;;;;;;;6.93;6.13;;;;;;;8.75;72.54;98100.09;5341275;26;20110;-73
2024/04/18 11:00:58;;;;;;;7.50;6.80;;;;;;;8.83;71.72;98087.13;5308880;26;20032;-73
2024/04/18 11:03:25;;;;;;;7.60;6.80;;;;;;;8.92;71.90;98090.25;5344669;26;20340;-72
2024/04/18 11:05:50;;;;;;;8.05;7.25;;;;;;;8.96;71.89;98080.69;5337851;26;20001;-72
2024/04/18 11:08:18;;;;;;;9.10;8.25;;;;;;;9.01;72.57;98067.34;5334798;26;20012;-73
2024/04/18 11:10:44;;;;;;;7.75;6.70;;;;;;;9.14;72.57;98083.22;5335062;26;20440;-73
2024/04/18 11:13:10;;;;;;;8.30;7.50;;;;;;;9.19;72.03;98095.94;5307839;26;20336;-76
2024/04/18 11:15:36;;;;;;;9.48;7.32;;;;;;;9.17;71.66;98082.72;5312397;26;20011;-74
2024/04/18 11:18:03;;;;;;;7.50;6.60;;;;;;;9.15;70.87;98079.44;5347509;26;20004;-73
2024/04/18 11:20:29;;;;;;;7.70;7.00;;;;;;;9.36;71.08;98094.94;5330512;26;20099;-73
2024/04/18 11:22:54;;;;;;;9.05;7.18;;;;;;;9.56;70.31;98081.91;5366493;26;20012;-73
2024/04/18 11:25:20;;;;;;;7.70;6.80;;;;;;;9.78;70.51;98084.69;5332747;26;20005;-73
2024/04/18 11:28:04;;;;;;;8.73;7.82;;;;;;;9.96;69.56;98080.97;5318165;26;20103;-73
2024/04/18 11:30:30;;;;;;;8.68;7.80;;;;;;;10.11;70.60;98078.53;5367080;26;20508;-74
2024/04/18 11:32:55;;;;;;;8.13;7.38;;;;;;;10.36;70.14;98073.63;5315310;26;20000;-74
2024/04/18 11:35:24;;;;;;;9.35;8.45;;;;;;;10.43;69.74;98060.81;5377955;26;20074;-74
2024/04/18 11:37:50;;;;;;;8.18;7.47;;;;;;;10.72;69.24;98070.38;5330851;26;20005;-74
2024/04/18 11:56:48;;;;;;;7.83;7.03;;;;;;;11.65;63.22;98058.53;6056482;22;20273;-76
2024/04/18 11:59:30;;;;;;;8.10;7.30;;;;;;;11.68;60.94;98052.69;5240800;27;20243;-76
2024/04/18 12:01:55;;;;;;;7.07;6.43;;;;;;;11.82;61.92;98086.28;5233134;27;20015;-76
2024/04/18 12:04:21;;;;;;;7.10;6.40;;;;;;;11.87;59.79;98062.03;5236805;27;20051;-74
2024/04/18 12:17:28;;;;;;;6.53;5.90;;;;;;;12.51;59.78;98048.53;6266643;21;20010;-74